createdAt,value
2023-05-22T00:01:31.677Z,100.00
2023-05-22T00:03:58.305Z,100.00
2023-05-22T00:06:26.319Z,100.00
2023-05-22T00:08:52.653Z,100.00
2023-05-22T00:11:18.998Z,100.00
2023-05-22T00:13:45.742Z,100.00
2023-05-22T00:16:12.131Z,100.00
2023-05-22T00:18:41.570Z,100.00
2023-05-22T00:21:08.276Z,100.00
2023-05-22T00:23:35.356Z,100.00
2023-05-22T00:26:01.790Z,100.00
2023-05-22T00:28:28.292Z,100.00
2023-05-22T00:30:54.648Z,100.00
2023-05-22T00:33:21.005Z,100.00
2023-05-22T00:35:47.456Z,100.00
2023-05-22T00:38:28.885Z,100.00
2023-05-22T00:40:56.048Z,100.00
2023-05-22T00:43:22.482Z,100.00
2023-05-22T00:45:48.881Z,100.00
2023-05-22T00:48:15.239Z,100.00
2023-05-22T00:50:41.770Z,100.00
2023-05-22T00:53:08.935Z,100.00
2023-05-22T00:55:35.365Z,100.00
2023-05-22T00:58:06.847Z,100.00
2023-05-22T01:00:34.446Z,100.00
2023-05-22T01:03:02.231Z,100.00
2023-05-22T01:05:28.754Z,100.00
2023-05-22T01:07:56.422Z,100.00
2023-05-22T01:10:23.376Z,100.00
2023-05-22T01:12:59.231Z,100.00
2023-05-22T01:15:38.815Z,100.00
2023-05-22T01:18:18.846Z,100.00
2023-05-22T01:20:54.349Z,100.00
2023-05-22T01:23:31.912Z,100.00
2023-05-22T01:26:22.092Z,100.00
2023-05-22T01:29:01.773Z,100.00
2023-05-22T01:31:31.184Z,100.00
2023-05-22T01:34:00.111Z,100.00
2023-05-22T01:36:30.322Z,100.00
2023-05-22T01:39:00.701Z,100.00
2023-05-22T01:41:28.702Z,100.00
2023-05-22T01:43:55.505Z,100.00
2023-05-22T01:46:25.781Z,100.00
2023-05-22T01:48:52.880Z,100.00
2023-05-22T01:51:23.670Z,100.00
2023-05-22T01:53:57.017Z,100.00
2023-05-22T01:56:30.169Z,100.00
2023-05-22T01:59:01.323Z,100.00
2023-05-22T02:01:30.827Z,100.00
2023-05-22T02:03:58.477Z,100.00
2023-05-22T02:06:28.398Z,100.00
2023-05-22T02:08:55.536Z,100.00
2023-05-22T02:11:24.234Z,100.00
2023-05-22T02:13:51.301Z,100.00
2023-05-22T02:16:18.607Z,100.00
2023-05-22T02:18:45.914Z,100.00
2023-05-22T02:21:12.944Z,100.00
2023-05-22T02:23:39.433Z,100.00
2023-05-22T02:26:06.066Z,100.00
2023-05-22T02:28:32.931Z,100.00
2023-05-22T02:30:59.362Z,100.00
2023-05-22T02:33:26.241Z,100.00
2023-05-22T02:35:52.595Z,100.00
2023-05-22T02:38:19.640Z,100.00
2023-05-22T02:40:46.366Z,100.00
2023-05-22T02:43:12.756Z,100.00
2023-05-22T02:45:39.071Z,100.00
2023-05-22T02:48:06.027Z,100.00
2023-05-22T02:50:32.461Z,100.00
2023-05-22T02:52:58.785Z,100.00
2023-05-22T02:55:25.821Z,100.00
2023-05-22T02:57:52.152Z,100.00
2023-05-22T03:00:19.955Z,100.00
2023-05-22T03:02:46.591Z,100.00
2023-05-22T03:05:16.864Z,100.00
2023-05-22T03:07:45.006Z,100.00
2023-05-22T03:10:12.346Z,100.00
2023-05-22T03:12:39.354Z,100.00
2023-05-22T03:15:06.747Z,100.00
2023-05-22T03:17:33.165Z,100.00
2023-05-22T03:19:59.486Z,100.00
2023-05-22T03:22:25.966Z,100.00
2023-05-22T03:24:52.769Z,100.00
2023-05-22T03:27:19.518Z,100.00
2023-05-22T03:29:46.530Z,100.00
2023-05-22T03:32:12.926Z,100.00
2023-05-22T03:34:39.266Z,100.00
2023-05-22T03:37:05.623Z,100.00
2023-05-22T03:39:31.959Z,100.00
2023-05-22T03:41:58.333Z,100.00
2023-05-22T03:44:24.812Z,100.00
2023-05-22T03:46:51.864Z,100.00
2023-05-22T03:49:18.228Z,100.00
2023-05-22T03:51:44.621Z,100.00
2023-05-22T03:54:11.030Z,100.00
2023-05-22T03:56:37.375Z,100.00
2023-05-22T03:59:03.742Z,100.00
2023-05-22T04:01:30.781Z,100.00
2023-05-22T04:03:57.781Z,100.00
2023-05-22T04:06:24.924Z,100.00
2023-05-22T04:08:51.247Z,100.00
2023-05-22T04:11:17.814Z,100.00
2023-05-22T04:13:44.513Z,100.00
2023-05-22T04:16:10.955Z,100.00
2023-05-22T04:18:37.307Z,100.00
2023-05-22T04:21:07.327Z,100.00
2023-05-22T04:23:33.668Z,100.00
2023-05-22T04:26:01.702Z,100.00
2023-05-22T04:28:29.538Z,100.00
2023-05-22T04:30:56.888Z,100.00
2023-05-22T04:33:24.064Z,100.00
2023-05-22T04:35:50.501Z,100.00
2023-05-22T04:38:17.872Z,100.00
2023-05-22T04:40:44.247Z,100.00
2023-05-22T04:43:11.786Z,100.00
2023-05-22T04:45:38.604Z,100.00
2023-05-22T04:48:05.722Z,100.00
2023-05-22T04:50:32.138Z,100.00
2023-05-22T04:52:59.311Z,100.00
2023-05-22T04:55:26.596Z,100.00
2023-05-22T04:57:52.954Z,100.00
2023-05-22T05:00:21.863Z,100.00
2023-05-22T05:02:49.973Z,100.00
2023-05-22T05:05:16.486Z,100.00
2023-05-22T05:07:43.196Z,100.00
2023-05-22T05:10:10.310Z,100.00
2023-05-22T05:12:37.386Z,100.00
2023-05-22T05:15:08.054Z,100.00
2023-05-22T05:17:34.625Z,100.00
2023-05-22T05:20:01.186Z,100.00
2023-05-22T05:22:27.582Z,100.00
2023-05-22T05:24:53.928Z,100.00
2023-05-22T05:27:20.335Z,100.00
2023-05-22T05:29:47.375Z,100.00
2023-05-22T05:32:13.816Z,100.00
2023-05-22T05:34:40.817Z,100.00
2023-05-22T05:37:07.268Z,100.00
2023-05-22T05:39:33.910Z,100.00
2023-05-22T05:42:00.627Z,100.00
2023-05-22T05:44:27.016Z,100.00
2023-05-22T05:46:54.380Z,100.00
2023-05-22T05:49:20.854Z,100.00
2023-05-22T05:51:47.216Z,100.00
2023-05-22T05:54:13.616Z,100.00
2023-05-22T05:56:40.010Z,100.00
2023-05-22T05:59:06.569Z,100.00
2023-05-22T06:01:34.515Z,100.00
2023-05-22T06:04:02.752Z,100.00
2023-05-22T06:06:30.182Z,100.00
2023-05-22T06:08:56.745Z,100.00
2023-05-22T06:11:23.420Z,100.00
2023-05-22T06:13:49.811Z,100.00
2023-05-22T06:16:16.253Z,100.00
2023-05-22T06:18:42.740Z,100.00
2023-05-22T06:21:10.026Z,100.00
2023-05-22T06:23:36.437Z,100.00
2023-05-22T06:26:02.916Z,100.00
2023-05-22T06:28:29.313Z,100.00
2023-05-22T06:30:56.447Z,100.00
2023-05-22T06:33:22.932Z,100.00
2023-05-22T06:35:49.445Z,100.00
2023-05-22T06:38:16.586Z,100.00
2023-05-22T06:40:42.967Z,100.00
2023-05-22T06:43:10.540Z,100.00
2023-05-22T06:45:37.738Z,100.00
2023-05-22T06:48:04.527Z,100.00
2023-05-22T06:50:31.026Z,100.00
2023-05-22T06:52:57.487Z,100.00
2023-05-22T06:55:24.641Z,100.00
2023-05-22T06:57:51.053Z,100.00
2023-05-22T07:00:20.891Z,100.00
2023-05-22T07:02:48.545Z,100.00
2023-05-22T07:05:15.182Z,100.00
2023-05-22T07:07:41.662Z,100.00
2023-05-22T07:10:08.861Z,100.00
2023-05-22T07:12:35.949Z,100.00
2023-05-22T07:15:02.766Z,100.00
2023-05-22T07:17:29.400Z,100.00
2023-05-22T07:19:56.196Z,100.00
2023-05-22T07:22:22.639Z,100.00
2023-05-22T07:24:49.098Z,100.00
2023-05-22T07:27:15.548Z,100.00
2023-05-22T07:29:42.672Z,100.00
2023-05-22T07:32:09.127Z,100.00
2023-05-22T07:34:35.521Z,100.00
2023-05-22T07:37:06.878Z,100.00
2023-05-22T07:39:33.307Z,100.00
2023-05-22T07:42:01.555Z,100.00
2023-05-22T07:44:28.414Z,100.00
2023-05-22T07:46:55.495Z,100.00
2023-05-22T07:49:22.792Z,100.00
2023-05-22T07:51:49.219Z,100.00
2023-05-22T07:54:15.644Z,100.00
2023-05-22T07:56:42.287Z,100.00
2023-05-22T07:59:09.996Z,100.00
2023-05-22T08:01:37.372Z,100.00
2023-05-22T08:04:05.008Z,100.00
2023-05-22T08:06:31.840Z,100.00
2023-05-22T08:08:59.345Z,100.00
2023-05-22T08:11:25.854Z,100.00
2023-05-22T08:13:52.353Z,100.00
2023-05-22T08:16:18.806Z,100.00
2023-05-22T08:18:45.261Z,100.00
2023-05-22T08:21:12.358Z,100.00
2023-05-22T08:23:38.765Z,100.00
2023-05-22T08:26:08.005Z,100.00
2023-05-22T08:28:34.345Z,100.00
2023-05-22T08:31:00.839Z,100.00
2023-05-22T08:33:27.523Z,100.00
2023-05-22T08:35:59.866Z,100.00
2023-05-22T08:38:26.923Z,100.00
2023-05-22T08:40:54.570Z,100.00
2023-05-22T08:43:20.990Z,100.00
2023-05-22T08:45:55.413Z,100.00
2023-05-22T08:48:23.491Z,100.00
2023-05-22T08:50:56.580Z,100.00
2023-05-22T08:53:23.670Z,100.00
2023-05-22T08:55:52.406Z,100.00
2023-05-22T08:58:18.978Z,100.00
2023-05-22T09:00:45.711Z,100.00
2023-05-22T09:03:14.063Z,100.00
2023-05-22T09:05:40.998Z,100.00
2023-05-22T09:08:19.210Z,100.00
2023-05-22T09:10:47.182Z,100.00
2023-05-22T09:13:24.825Z,100.00
2023-05-22T09:15:51.311Z,100.00
2023-05-22T09:18:17.747Z,100.00
2023-05-22T09:20:44.357Z,100.00
2023-05-22T09:23:12.451Z,100.00
2023-05-22T09:25:38.857Z,100.00
2023-05-22T09:28:05.247Z,100.00
2023-05-22T09:30:35.401Z,100.00
2023-05-22T09:33:02.038Z,100.00
2023-05-22T09:35:31.078Z,100.00
2023-05-22T09:37:58.710Z,100.00
2023-05-22T09:40:27.438Z,100.00
2023-05-22T09:42:53.778Z,100.00
2023-05-22T09:45:23.348Z,100.00
2023-05-22T09:47:50.548Z,100.00
2023-05-22T09:50:17.802Z,100.00
2023-05-22T09:52:46.121Z,100.00
2023-05-22T09:55:13.806Z,100.00
2023-05-22T09:57:42.870Z,100.00
2023-05-22T10:00:12.491Z,100.00
2023-05-22T10:02:43.507Z,100.00
2023-05-22T10:05:12.197Z,100.00
2023-05-22T10:07:46.273Z,100.00
2023-05-22T10:10:15.021Z,100.00
2023-05-22T10:12:44.752Z,100.00
2023-05-22T10:15:11.853Z,100.00
2023-05-22T10:17:40.057Z,100.00
2023-05-22T10:20:08.290Z,100.00
2023-05-22T10:22:37.388Z,100.00
2023-05-22T10:25:04.997Z,100.00
2023-05-22T10:27:31.583Z,100.00
2023-05-22T10:30:05.881Z,100.00
2023-05-22T10:32:38.304Z,100.00
2023-05-22T10:35:13.656Z,100.00
2023-05-22T10:37:52.554Z,94.83
2023-05-22T10:40:28.069Z,98.17
2023-05-22T10:42:58.800Z,96.35
2023-05-22T10:45:28.788Z,100.00
2023-05-22T10:48:05.415Z,91.45
2023-05-22T10:50:34.811Z,98.73
2023-05-22T10:53:22.647Z,99.93
2023-05-22T10:55:49.628Z,96.55
2023-05-22T10:58:16.258Z,100.00
2023-05-22T11:00:42.839Z,100.00
2023-05-22T11:03:17.664Z,100.00
2023-05-22T11:05:52.865Z,96.35
2023-05-22T11:08:48.053Z,94.24
2023-05-22T11:11:14.464Z,97.10
2023-05-22T11:13:41.817Z,96.51
2023-05-22T11:16:09.859Z,92.70
2023-05-22T11:18:36.917Z,86.91
2023-05-22T11:21:05.274Z,88.26
2023-05-22T11:23:37.849Z,97.31
2023-05-22T11:26:21.858Z,95.52
2023-05-22T11:28:50.917Z,93.67
2023-05-22T11:31:18.201Z,95.67
2023-05-22T11:33:46.207Z,89.07
2023-05-22T11:36:15.208Z,90.03
2023-05-22T11:38:42.487Z,84.34
2023-05-22T11:41:09.601Z,92.26
2023-05-22T11:43:37.166Z,84.67
2023-05-22T11:46:07.029Z,87.64
2023-05-22T11:48:33.762Z,91.14
2023-05-22T11:51:00.260Z,93.77
2023-05-22T11:53:26.671Z,90.82
2023-05-22T11:55:53.012Z,92.43
2023-05-22T11:58:22.061Z,94.92
2023-05-22T12:00:49.176Z,91.85
2023-05-22T12:03:16.867Z,91.26
2023-05-22T12:05:45.336Z,95.71
2023-05-22T12:08:14.811Z,93.76
2023-05-22T12:10:47.181Z,95.41
2023-05-22T12:13:13.610Z,90.36
2023-05-22T12:15:40.066Z,90.69
2023-05-22T12:18:09.403Z,96.76
2023-05-22T12:20:41.045Z,100.00
2023-05-22T12:23:11.254Z,98.30
2023-05-22T12:25:37.712Z,93.64
2023-05-22T12:28:06.234Z,94.22
2023-05-22T12:30:40.312Z,98.34
2023-05-22T12:33:12.507Z,100.00
2023-05-22T12:35:38.899Z,97.83
2023-05-22T12:38:07.702Z,98.00
2023-05-22T12:40:34.322Z,100.00
2023-05-22T12:43:00.779Z,100.00
2023-05-22T12:45:27.156Z,100.00
2023-05-22T12:47:53.653Z,100.00
2023-05-22T12:50:20.911Z,95.75
2023-05-22T12:52:47.333Z,94.08
2023-05-22T12:55:13.774Z,98.21
2023-05-22T12:57:46.070Z,92.70
2023-05-22T13:00:13.544Z,94.03
2023-05-22T13:02:40.031Z,93.24
2023-05-22T13:05:07.084Z,90.04
2023-05-22T13:07:34.175Z,97.75
2023-05-22T13:10:00.577Z,98.10
2023-05-22T13:12:26.995Z,97.68
2023-05-22T13:14:53.398Z,95.39
2023-05-22T13:17:20.178Z,93.07
2023-05-22T13:19:46.602Z,98.42
2023-05-22T13:22:14.041Z,87.70
2023-05-22T13:24:41.111Z,86.38
2023-05-22T13:27:07.540Z,87.68
2023-05-22T13:29:33.982Z,89.14
2023-05-22T13:32:00.481Z,92.42
2023-05-22T13:34:27.869Z,90.54
2023-05-22T13:36:54.753Z,84.08
2023-05-22T13:39:22.012Z,84.20
2023-05-22T13:41:51.125Z,91.40
2023-05-22T13:44:17.602Z,100.00
2023-05-22T13:46:44.140Z,100.00
2023-05-22T13:49:10.638Z,100.00
2023-05-22T13:51:37.406Z,100.00
2023-05-22T13:54:04.194Z,100.00
2023-05-22T13:56:30.618Z,100.00
2023-05-22T13:58:57.706Z,100.00
2023-05-22T14:01:24.117Z,94.36
2023-05-22T14:03:50.644Z,97.09
2023-05-22T14:06:19.707Z,100.00
2023-05-22T14:08:46.236Z,99.07
2023-05-22T14:11:12.715Z,100.00
2023-05-22T14:13:39.188Z,91.21
2023-05-22T14:16:06.325Z,91.80
2023-05-22T14:18:32.771Z,87.54
2023-05-22T14:21:04.621Z,85.68
2023-05-22T14:23:31.461Z,85.29
2023-05-22T14:25:57.893Z,89.48
2023-05-22T14:28:24.353Z,88.77
2023-05-22T14:30:53.598Z,86.14
2023-05-22T14:33:20.724Z,89.07
2023-05-22T14:35:47.772Z,82.73
2023-05-22T14:38:14.240Z,89.49
2023-05-22T14:40:40.690Z,84.59
2023-05-22T14:43:07.150Z,85.56
2023-05-22T14:45:33.743Z,84.30
2023-05-22T14:48:00.292Z,79.96
2023-05-22T14:50:27.438Z,81.91
2023-05-22T14:53:02.153Z,78.15
2023-05-22T14:55:28.567Z,78.19
2023-05-22T14:57:55.654Z,70.32
2023-05-22T15:00:22.139Z,73.31
2023-05-22T15:02:48.636Z,77.14
2023-05-22T15:05:15.235Z,69.92
2023-05-22T15:07:46.090Z,76.34
2023-05-22T15:10:13.765Z,81.00
2023-05-22T15:12:40.225Z,82.11
2023-05-22T15:15:07.864Z,85.06
2023-05-22T15:17:34.562Z,84.49
2023-05-22T15:20:01.157Z,86.24
2023-05-22T15:22:27.609Z,84.85
2023-05-22T15:25:04.558Z,86.40
2023-05-22T15:27:31.058Z,86.94
2023-05-22T15:29:57.440Z,87.59
2023-05-22T15:32:23.812Z,89.32
2023-05-22T15:34:50.890Z,91.82
2023-05-22T15:37:17.253Z,93.37
2023-05-22T15:39:43.653Z,97.76
2023-05-22T15:42:10.674Z,97.68
2023-05-22T15:44:37.108Z,100.00
2023-05-22T15:47:03.647Z,100.00
2023-05-22T15:49:31.424Z,100.00
2023-05-22T15:51:58.557Z,100.00
2023-05-22T15:54:26.945Z,100.00
2023-05-22T15:56:53.326Z,97.81
2023-05-22T15:59:21.752Z,97.50
2023-05-22T16:01:48.245Z,94.51
2023-05-22T16:04:14.675Z,98.11
2023-05-22T16:06:41.288Z,93.17
2023-05-22T16:09:08.669Z,94.49
2023-05-22T16:11:36.966Z,96.03
2023-05-22T16:14:03.628Z,97.35
2023-05-22T16:16:30.794Z,100.00
2023-05-22T16:18:57.356Z,100.00
2023-05-22T16:21:23.765Z,99.40
2023-05-22T16:23:50.293Z,100.00
2023-05-22T16:26:16.674Z,99.25
2023-05-22T16:28:43.084Z,100.00
2023-05-22T16:31:09.586Z,96.72
2023-05-22T16:33:36.754Z,99.77
2023-05-22T16:36:03.422Z,100.00
2023-05-22T16:38:29.827Z,100.00
2023-05-22T16:40:56.308Z,100.00
2023-05-22T16:43:22.744Z,100.00
2023-05-22T16:45:50.373Z,100.00
2023-05-22T16:48:16.923Z,100.00
2023-05-22T16:50:45.777Z,100.00
2023-05-22T16:53:12.448Z,100.00
2023-05-22T16:55:39.256Z,100.00
2023-05-22T16:58:06.074Z,100.00
2023-05-22T17:00:32.503Z,95.87
2023-05-22T17:02:59.739Z,92.13
2023-05-22T17:05:27.993Z,98.00
2023-05-22T17:07:55.056Z,90.71
2023-05-22T17:13:18.811Z,80.05
2023-05-22T17:15:45.454Z,80.45
2023-05-22T17:18:11.861Z,75.74
2023-05-22T17:20:38.288Z,81.18
2023-05-22T17:23:06.524Z,92.20
2023-05-22T17:25:32.903Z,91.82
2023-05-22T17:27:59.213Z,95.30
2023-05-22T17:30:25.599Z,100.00
2023-05-22T17:32:55.370Z,100.00
2023-05-22T17:35:21.819Z,100.00
2023-05-22T17:37:48.475Z,100.00
2023-05-22T17:40:15.751Z,100.00
2023-05-22T17:42:42.133Z,100.00
2023-05-22T17:45:09.801Z,100.00
2023-05-22T17:47:36.195Z,100.00
2023-05-22T17:50:02.552Z,100.00
2023-05-22T17:52:28.921Z,100.00
2023-05-22T17:54:55.497Z,100.00
2023-05-22T17:57:22.613Z,100.00
2023-05-22T17:59:49.349Z,100.00
2023-05-22T18:02:15.811Z,100.00
2023-05-22T18:04:42.175Z,100.00
2023-05-22T18:07:08.541Z,100.00
2023-05-22T18:09:34.935Z,100.00
2023-05-22T18:12:02.843Z,100.00
2023-05-22T18:14:30.017Z,100.00
2023-05-22T18:16:57.528Z,100.00
2023-05-22T18:19:23.949Z,100.00
2023-05-22T18:21:52.757Z,100.00
2023-05-22T18:24:24.988Z,100.00
2023-05-22T18:26:51.654Z,100.00
2023-05-22T18:29:18.183Z,100.00
2023-05-22T18:31:45.199Z,100.00
2023-05-22T18:34:12.829Z,100.00
2023-05-22T18:36:40.470Z,100.00
2023-05-22T18:39:08.142Z,100.00
2023-05-22T18:41:36.229Z,100.00
2023-05-22T18:44:02.976Z,100.00
2023-05-22T18:46:34.142Z,100.00
2023-05-22T18:49:01.173Z,100.00
2023-05-22T18:51:28.286Z,100.00
2023-05-22T18:53:55.758Z,100.00
2023-05-22T18:56:22.115Z,100.00
2023-05-22T18:58:48.520Z,100.00
2023-05-22T19:01:15.945Z,100.00
2023-05-22T19:03:42.358Z,100.00
2023-05-22T19:06:09.371Z,100.00
2023-05-22T19:08:35.773Z,100.00
2023-05-22T19:11:02.290Z,100.00
2023-05-22T19:13:28.802Z,100.00
2023-05-22T19:15:56.541Z,100.00
2023-05-22T19:18:22.954Z,100.00
2023-05-22T19:20:49.268Z,100.00
2023-05-22T19:23:16.264Z,100.00
2023-05-22T19:25:42.636Z,100.00
2023-05-22T19:28:09.020Z,100.00
2023-05-22T19:30:35.581Z,100.00
2023-05-22T19:33:02.112Z,100.00
2023-05-22T19:35:28.548Z,100.00
2023-05-22T19:37:54.945Z,100.00
2023-05-22T19:40:21.923Z,100.00
2023-05-22T19:42:48.497Z,100.00
2023-05-22T19:45:14.908Z,100.00
2023-05-22T19:47:41.309Z,100.00
2023-05-22T19:50:08.548Z,100.00
2023-05-22T19:52:34.902Z,100.00
2023-05-22T19:55:01.247Z,100.00
2023-05-22T19:57:28.744Z,100.00
2023-05-22T19:59:55.167Z,100.00
2023-05-22T20:02:21.663Z,100.00
2023-05-22T20:04:48.079Z,100.00
2023-05-22T20:07:14.541Z,100.00
2023-05-22T20:09:41.072Z,100.00
2023-05-22T20:12:07.717Z,100.00
2023-05-22T20:14:35.621Z,100.00
2023-05-22T20:17:02.222Z,100.00
2023-05-22T20:19:29.162Z,100.00
2023-05-22T20:21:57.441Z,100.00
2023-05-22T20:24:24.391Z,100.00
2023-05-22T20:26:51.012Z,100.00
2023-05-22T20:29:17.589Z,100.00
2023-05-22T20:31:45.110Z,100.00
2023-05-22T20:34:11.488Z,100.00
2023-05-22T20:36:39.163Z,100.00
2023-05-22T20:39:06.053Z,100.00
2023-05-22T20:41:32.972Z,100.00
2023-05-22T20:43:59.348Z,100.00
2023-05-22T20:46:26.318Z,100.00
2023-05-22T20:48:53.976Z,100.00
2023-05-22T20:51:20.600Z,100.00
2023-05-22T20:53:47.251Z,100.00
2023-05-22T20:56:13.899Z,100.00
2023-05-22T20:58:40.352Z,100.00
2023-05-22T21:01:09.972Z,100.00
2023-05-22T21:03:36.982Z,100.00
2023-05-22T21:06:04.410Z,100.00
2023-05-22T21:08:30.756Z,100.00
2023-05-22T21:10:59.090Z,100.00
2023-05-22T21:13:28.138Z,100.00
2023-05-22T21:15:54.479Z,100.00
2023-05-22T21:18:21.305Z,100.00
2023-05-22T21:20:47.665Z,100.00
2023-05-22T21:23:15.093Z,100.00
2023-05-22T21:25:41.741Z,100.00
2023-05-22T21:28:08.223Z,100.00
2023-05-22T21:30:34.640Z,100.00
2023-05-22T21:33:01.020Z,100.00
2023-05-22T21:35:27.456Z,100.00
2023-05-22T21:37:53.831Z,100.00
2023-05-22T21:40:20.901Z,100.00
2023-05-22T21:42:47.611Z,100.00
2023-05-22T21:45:14.171Z,100.00
2023-05-22T21:47:40.531Z,100.00
2023-05-22T21:50:07.633Z,100.00
2023-05-22T21:52:35.727Z,100.00
2023-05-22T21:55:02.105Z,100.00
2023-05-22T21:57:29.174Z,100.00
2023-05-22T21:59:55.602Z,100.00
2023-05-22T22:02:22.021Z,100.00
2023-05-22T22:04:49.507Z,100.00
2023-05-22T22:07:15.851Z,100.00
2023-05-22T22:09:42.273Z,100.00
2023-05-22T22:12:08.693Z,100.00
2023-05-22T22:14:35.738Z,100.00
2023-05-22T22:17:04.908Z,100.00
2023-05-22T22:19:33.404Z,100.00
2023-05-22T22:21:59.938Z,100.00
2023-05-22T22:24:26.293Z,100.00
2023-05-22T22:26:52.649Z,100.00
2023-05-22T22:29:19.002Z,100.00
2023-05-22T22:31:46.025Z,100.00
2023-05-22T22:34:12.498Z,100.00
2023-05-22T22:36:39.336Z,100.00
2023-05-22T22:39:05.721Z,100.00
2023-05-22T22:41:32.059Z,100.00
2023-05-22T22:43:58.428Z,100.00
2023-05-22T22:46:27.595Z,100.00
2023-05-22T22:48:55.002Z,100.00
2023-05-22T22:57:49.595Z,100.00
2023-05-22T23:00:17.021Z,100.00
2023-05-22T23:02:43.444Z,100.00
2023-05-22T23:05:10.320Z,100.00
2023-05-22T23:07:36.749Z,100.00
2023-05-22T23:10:03.443Z,100.00
2023-05-22T23:12:32.120Z,100.00
2023-05-22T23:14:59.125Z,100.00
2023-05-22T23:17:25.453Z,100.00
2023-05-22T23:19:51.790Z,100.00
2023-05-22T23:22:18.527Z,100.00
2023-05-22T23:24:44.921Z,100.00
2023-05-22T23:27:11.236Z,100.00
2023-05-22T23:29:37.531Z,100.00
2023-05-22T23:32:04.759Z,100.00
2023-05-22T23:34:31.066Z,100.00
2023-05-22T23:36:57.393Z,100.00
2023-05-22T23:39:23.749Z,100.00
2023-05-22T23:41:53.491Z,100.00
2023-05-22T23:44:19.885Z,100.00
2023-05-22T23:46:46.955Z,100.00
2023-05-22T23:49:14.082Z,100.00
2023-05-22T23:51:40.429Z,100.00
2023-05-22T23:54:10.538Z,100.00
2023-05-22T23:56:36.895Z,100.00
2023-05-22T23:59:03.299Z,100.00
